sensor_id;sensor_type;location;lat;lon;timestamp;pressure;altitude;pressure_sealevel;temperature;humidity
54417;BME280;40326;51.220;7.250;2022-08-19T00:01:42;98279.31;;;15.00;100.00
54417;BME280;40326;51.220;7.250;2022-08-19T00:04:09;98275.44;;;14.94;100.00
54417;BME280;40326;51.220;7.250;2022-08-19T00:06:37;98276.06;;;14.85;100.00
54417;BME280;40326;51.220;7.250;2022-08-19T00:09:05;98277.94;;;14.83;100.00
54417;BME280;40326;51.220;7.250;2022-08-19T00:11:31;98285.16;;;14.78;100.00
54417;BME280;40326;51.220;7.250;2022-08-19T00:13:57;98282.38;;;14.68;100.00
54417;BME280;40326;51.220;7.250;2022-08-19T00:16:24;98278.47;;;14.63;100.00
54417;BME280;40326;51.220;7.250;2022-08-19T00:18:49;98272.81;;;14.58;100.00
54417;BME280;40326;51.220;7.250;2022-08-19T00:21:15;98279.63;;;14.59;100.00
54417;BME280;40326;51.220;7.250;2022-08-19T00:23:41;98290.94;;;14.69;100.00
54417;BME280;40326;51.220;7.250;2022-08-19T00:26:08;98293.50;;;14.69;100.00
54417;BME280;40326;51.220;7.250;2022-08-19T00:28:34;98292.09;;;14.65;100.00
54417;BME280;40326;51.220;7.250;2022-08-19T00:31:01;98289.91;;;14.59;100.00
54417;BME280;40326;51.220;7.250;2022-08-19T00:33:27;98284.94;;;14.56;100.00
54417;BME280;40326;51.220;7.250;2022-08-19T00:35:52;98284.94;;;14.56;100.00
54417;BME280;40326;51.220;7.250;2022-08-19T00:38:17;98287.25;;;14.47;100.00
54417;BME280;40326;51.220;7.250;2022-08-19T00:40:44;98280.44;;;14.46;100.00
54417;BME280;40326;51.220;7.250;2022-08-19T00:43:12;98289.16;;;14.44;100.00
54417;BME280;40326;51.220;7.250;2022-08-19T00:45:40;98282.88;;;14.35;100.00
54417;BME280;40326;51.220;7.250;2022-08-19T00:48:10;98285.75;;;14.43;100.00
54417;BME280;40326;51.220;7.250;2022-08-19T00:50:35;98280.81;;;14.40;100.00
54417;BME280;40326;51.220;7.250;2022-08-19T00:53:03;98276.06;;;14.34;100.00
54417;BME280;40326;51.220;7.250;2022-08-19T00:55:30;98266.91;;;14.30;100.00
54417;BME280;40326;51.220;7.250;2022-08-19T00:58:07;98263.72;;;14.39;100.00
54417;BME280;40326;51.220;7.250;2022-08-19T01:00:34;98269.69;;;14.27;100.00
54417;BME280;40326;51.220;7.250;2022-08-19T01:03:12;98273.41;;;14.23;100.00
54417;BME280;40326;51.220;7.250;2022-08-19T01:05:39;98283.31;;;14.29;100.00
54417;BME280;40326;51.220;7.250;2022-08-19T01:08:07;98287.91;;;14.37;100.00
54417;BME280;40326;51.220;7.250;2022-08-19T01:10:39;98286.69;;;14.42;100.00
54417;BME280;40326;51.220;7.250;2022-08-19T01:13:05;98281.13;;;14.36;100.00
54417;BME280;40326;51.220;7.250;2022-08-19T01:15:40;98286.38;;;14.34;100.00
54417;BME280;40326;51.220;7.250;2022-08-19T01:18:10;98285.56;;;14.34;100.00
54417;BME280;40326;51.220;7.250;2022-08-19T01:20:37;98284.72;;;14.33;100.00
54417;BME280;40326;51.220;7.250;2022-08-19T01:23:04;98281.44;;;14.31;100.00
54417;BME280;40326;51.220;7.250;2022-08-19T01:25:33;98281.44;;;14.31;100.00
54417;BME280;40326;51.220;7.250;2022-08-19T01:28:00;98276.69;;;14.25;100.00
54417;BME280;40326;51.220;7.250;2022-08-19T01:30:28;98270.13;;;14.21;100.00
54417;BME280;40326;51.220;7.250;2022-08-19T01:32:55;98271.75;;;14.22;100.00
54417;BME280;40326;51.220;7.250;2022-08-19T01:35:23;98275.44;;;14.18;100.00
54417;BME280;40326;51.220;7.250;2022-08-19T01:37:51;98259.50;;;14.13;100.00
54417;BME280;40326;51.220;7.250;2022-08-19T01:40:18;98260.22;;;14.15;100.00
54417;BME280;40326;51.220;7.250;2022-08-19T01:42:46;98255.34;;;14.10;100.00
54417;BME280;40326;51.220;7.250;2022-08-19T01:45:12;98255.28;;;14.12;100.00
54417;BME280;40326;51.220;7.250;2022-08-19T01:47:38;98256.09;;;14.12;100.00
54417;BME280;40326;51.220;7.250;2022-08-19T01:50:05;98254.84;;;14.05;100.00
54417;BME280;40326;51.220;7.250;2022-08-19T01:52:31;98256.28;;;14.09;100.00
54417;BME280;40326;51.220;7.250;2022-08-19T01:54:56;98261.63;;;14.19;100.00
54417;BME280;40326;51.220;7.250;2022-08-19T01:57:22;98251.94;;;13.97;100.00
54417;BME280;40326;51.220;7.250;2022-08-19T01:59:47;98257.91;;;13.98;100.00
54417;BME280;40326;51.220;7.250;2022-08-19T02:02:13;98252.78;;;13.98;100.00
54417;BME280;40326;51.220;7.250;2022-08-19T02:04:39;98263.06;;;13.98;100.00
54417;BME280;40326;51.220;7.250;2022-08-19T02:07:05;98259.56;;;13.99;100.00
54417;BME280;40326;51.220;7.250;2022-08-19T02:09:32;98254.84;;;14.05;100.00
54417;BME280;40326;51.220;7.250;2022-08-19T02:11:58;98254.22;;;14.02;100.00
54417;BME280;40326;51.220;7.250;2022-08-19T02:14:33;98257.38;;;13.92;100.00
54417;BME280;40326;51.220;7.250;2022-08-19T02:16:59;98252.44;;;13.89;100.00
54417;BME280;40326;51.220;7.250;2022-08-19T02:19:24;98255.03;;;13.89;100.00
54417;BME280;40326;51.220;7.250;2022-08-19T02:21:50;98254.69;;;13.81;100.00
54417;BME280;40326;51.220;7.250;2022-08-19T02:24:15;98254.69;;;13.81;100.00
54417;BME280;40326;51.220;7.250;2022-08-19T02:26:40;98246.59;;;13.87;100.00
54417;BME280;40326;51.220;7.250;2022-08-19T02:29:06;98251.94;;;13.84;100.00
54417;BME280;40326;51.220;7.250;2022-08-19T02:31:31;98264.09;;;13.95;100.00
54417;BME280;40326;51.220;7.250;2022-08-19T02:33:56;98259.78;;;13.96;100.00
54417;BME280;40326;51.220;7.250;2022-08-19T02:36:24;98256.28;;;13.97;100.00
54417;BME280;40326;51.220;7.250;2022-08-19T02:38:49;98266.34;;;14.00;100.00
54417;BME280;40326;51.220;7.250;2022-08-19T02:41:21;98258.25;;;13.93;100.00
54417;BME280;40326;51.220;7.250;2022-08-19T02:43:47;98262.69;;;14.04;100.00
54417;BME280;40326;51.220;7.250;2022-08-19T02:48:49;98264.31;;;14.05;100.00
54417;BME280;40326;51.220;7.250;2022-08-19T02:51:36;98259.59;;;14.11;100.00
54417;BME280;40326;51.220;7.250;2022-08-19T02:54:02;98264.75;;;14.11;100.00
54417;BME280;40326;51.220;7.250;2022-08-19T02:56:30;98274.41;;;14.08;100.00
54417;BME280;40326;51.220;7.250;2022-08-19T02:58:56;98276.69;;;14.12;100.00
54417;BME280;40326;51.220;7.250;2022-08-19T03:01:29;98276.47;;;14.15;100.00
54417;BME280;40326;51.220;7.250;2022-08-19T03:03:55;98285.03;;;14.16;100.00
54417;BME280;40326;51.220;7.250;2022-08-19T03:06:22;98285.25;;;14.26;100.00
54417;BME280;40326;51.220;7.250;2022-08-19T03:08:48;98275.44;;;14.18;100.00
54417;BME280;40326;51.220;7.250;2022-08-19T03:11:26;98273.91;;;14.15;100.00
54417;BME280;40326;51.220;7.250;2022-08-19T03:13:52;98268.34;;;14.09;100.00
54417;BME280;40326;51.220;7.250;2022-08-19T03:16:23;98254.63;;;14.08;100.00
54417;BME280;40326;51.220;7.250;2022-08-19T03:18:50;98257.31;;;14.07;100.00
54417;BME280;40326;51.220;7.250;2022-08-19T03:21:18;98264.75;;;14.11;100.00
54417;BME280;40326;51.220;7.250;2022-08-19T03:23:44;98266.41;;;14.12;100.00
54417;BME280;40326;51.220;7.250;2022-08-19T03:26:10;98269.66;;;14.02;100.00
54417;BME280;40326;51.220;7.250;2022-08-19T03:28:35;98258.25;;;14.06;100.00
54417;BME280;40326;51.220;7.250;2022-08-19T03:31:03;98266.34;;;14.00;100.00
54417;BME280;40326;51.220;7.250;2022-08-19T03:33:31;98274.09;;;14.00;100.00
54417;BME280;40326;51.220;7.250;2022-08-19T03:36:18;98278.94;;;14.04;100.00
54417;BME280;40326;51.220;7.250;2022-08-19T03:38:47;98274.94;;;14.13;100.00
54417;BME280;40326;51.220;7.250;2022-08-19T03:41:16;98279.78;;;14.17;100.00
54417;BME280;40326;51.220;7.250;2022-08-19T03:43:43;98276.69;;;14.12;100.00
54417;BME280;40326;51.220;7.250;2022-08-19T03:46:14;98281.63;;;14.15;100.00
54417;BME280;40326;51.220;7.250;2022-08-19T03:48:42;98280.09;;;14.13;100.00
54417;BME280;40326;51.220;7.250;2022-08-19T03:51:19;98284.91;;;14.17;100.00
54417;BME280;40326;51.220;7.250;2022-08-19T03:53:47;98282.88;;;14.23;100.00
54417;BME280;40326;51.220;7.250;2022-08-19T03:56:13;98284.53;;;14.24;100.00
54417;BME280;40326;51.220;7.250;2022-08-19T03:58:39;98280.59;;;14.18;100.00
54417;BME280;40326;51.220;7.250;2022-08-19T04:01:15;98281.13;;;14.23;100.00
54417;BME280;40326;51.220;7.250;2022-08-19T04:03:41;98287.50;;;14.17;100.00
54417;BME280;40326;51.220;7.250;2022-08-19T04:06:18;98286.66;;;14.17;100.00
54417;BME280;40326;51.220;7.250;2022-08-19T04:08:46;98290.38;;;14.13;100.00
54417;BME280;40326;51.220;7.250;2022-08-19T04:11:14;98291.50;;;14.09;100.00
54417;BME280;40326;51.220;7.250;2022-08-19T04:13:40;98283.28;;;14.04;100.00
54417;BME280;40326;51.220;7.250;2022-08-19T04:16:07;98282.72;;;13.99;100.00
54417;BME280;40326;51.220;7.250;2022-08-19T04:18:34;98284.09;;;14.04;100.00
54417;BME280;40326;51.220;7.250;2022-08-19T04:20:59;98285.09;;;14.02;100.00
54417;BME280;40326;51.220;7.250;2022-08-19T04:23:26;98285.09;;;14.02;100.00
54417;BME280;40326;51.220;7.250;2022-08-19T04:25:53;98294.69;;;14.00;100.00
54417;BME280;40326;51.220;7.250;2022-08-19T04:28:19;98292.63;;;14.05;100.00
54417;BME280;40326;51.220;7.250;2022-08-19T04:30:49;98295.31;;;14.16;100.00
54417;BME280;40326;51.220;7.250;2022-08-19T04:33:17;98294.31;;;14.31;100.00
54417;BME280;40326;51.220;7.250;2022-08-19T04:35:46;98307.41;;;14.41;100.00
54417;BME280;40326;51.220;7.250;2022-08-19T04:38:13;98302.16;;;14.55;100.00
54417;BME280;40326;51.220;7.250;2022-08-19T04:40:47;98305.88;;;14.64;100.00
54417;BME280;40326;51.220;7.250;2022-08-19T04:43:33;98305.16;;;14.87;100.00
54417;BME280;40326;51.220;7.250;2022-08-19T04:45:59;98308.13;;;14.81;100.00
54417;BME280;40326;51.220;7.250;2022-08-19T04:48:29;98314.75;;;14.85;100.00
54417;BME280;40326;51.220;7.250;2022-08-19T04:50:56;98319.25;;;14.94;100.00
54417;BME280;40326;51.220;7.250;2022-08-19T04:53:30;98315.59;;;15.10;100.00
54417;BME280;40326;51.220;7.250;2022-08-19T04:55:59;98315.59;;;15.10;100.00
54417;BME280;40326;51.220;7.250;2022-08-19T04:58:26;98316.63;;;15.20;100.00
54417;BME280;40326;51.220;7.250;2022-08-19T05:00:52;98310.25;;;15.00;100.00
54417;BME280;40326;51.220;7.250;2022-08-19T05:03:17;98318.13;;;14.98;100.00
54417;BME280;40326;51.220;7.250;2022-08-19T05:05:44;98309.84;;;15.06;100.00
54417;BME280;40326;51.220;7.250;2022-08-19T05:08:15;98307.88;;;15.10;100.00
54417;BME280;40326;51.220;7.250;2022-08-19T05:10:45;98303.66;;;15.09;100.00
54417;BME280;40326;51.220;7.250;2022-08-19T05:13:11;98310.75;;;15.18;100.00
54417;BME280;40326;51.220;7.250;2022-08-19T05:15:36;98307.53;;;15.27;100.00
54417;BME280;40326;51.220;7.250;2022-08-19T05:18:02;98311.38;;;15.45;100.00
54417;BME280;40326;51.220;7.250;2022-08-19T05:20:46;98311.03;;;15.63;100.00
54417;BME280;40326;51.220;7.250;2022-08-19T05:23:30;98316.31;;;15.85;100.00
54417;BME280;40326;51.220;7.250;2022-08-19T05:25:55;98314.78;;;15.82;100.00
54417;BME280;40326;51.220;7.250;2022-08-19T05:28:20;98315.97;;;16.25;100.00
54417;BME280;40326;51.220;7.250;2022-08-19T05:30:47;98308.22;;;16.25;100.00
54417;BME280;40326;51.220;7.250;2022-08-19T05:33:14;98303.03;;;16.25;100.00
54417;BME280;40326;51.220;7.250;2022-08-19T05:35:39;98298.59;;;16.27;100.00
54417;BME280;40326;51.220;7.250;2022-08-19T05:38:06;98297.00;;;16.48;100.00
54417;BME280;40326;51.220;7.250;2022-08-19T05:40:38;98295.94;;;16.51;100.00
54417;BME280;40326;51.220;7.250;2022-08-19T05:43:05;98293.94;;;16.65;100.00
54417;BME280;40326;51.220;7.250;2022-08-19T05:45:30;98303.88;;;16.83;100.00
54417;BME280;40326;51.220;7.250;2022-08-19T05:47:56;98299.97;;;16.88;100.00
54417;BME280;40326;51.220;7.250;2022-08-19T05:50:22;98294.91;;;16.98;100.00
54417;BME280;40326;51.220;7.250;2022-08-19T05:52:47;98288.78;;;17.10;100.00
54417;BME280;40326;51.220;7.250;2022-08-19T05:55:13;98282.91;;;17.19;100.00
54417;BME280;40326;51.220;7.250;2022-08-19T05:57:39;98284.53;;;17.20;100.00
54417;BME280;40326;51.220;7.250;2022-08-19T06:00:06;98278.38;;;17.33;100.00
54417;BME280;40326;51.220;7.250;2022-08-19T06:02:36;98266.16;;;17.35;100.00
54417;BME280;40326;51.220;7.250;2022-08-19T06:05:04;98268.72;;;17.46;100.00
54417;BME280;40326;51.220;7.250;2022-08-19T06:07:33;98257.63;;;17.55;100.00
54417;BME280;40326;51.220;7.250;2022-08-19T06:09:58;98258.38;;;17.46;100.00
54417;BME280;40326;51.220;7.250;2022-08-19T06:12:24;98259.44;;;17.75;100.00
54417;BME280;40326;51.220;7.250;2022-08-19T06:14:55;98251.69;;;17.75;100.00
54417;BME280;40326;51.220;7.250;2022-08-19T06:17:20;98251.06;;;17.83;100.00
54417;BME280;40326;51.220;7.250;2022-08-19T06:19:50;98249.00;;;17.98;100.00
54417;BME280;40326;51.220;7.250;2022-08-19T06:22:15;98237.28;;;18.03;100.00
54417;BME280;40326;51.220;7.250;2022-08-19T06:24:41;98226.84;;;18.35;100.00
54417;BME280;40326;51.220;7.250;2022-08-19T06:27:06;98222.13;;;18.20;100.00
54417;BME280;40326;51.220;7.250;2022-08-19T06:29:32;98219.06;;;18.35;100.00
54417;BME280;40326;51.220;7.250;2022-08-19T06:32:00;98220.09;;;18.54;100.00
54417;BME280;40326;51.220;7.250;2022-08-19T06:34:28;98222.56;;;18.95;100.00
54417;BME280;40326;51.220;7.250;2022-08-19T06:36:55;98218.59;;;18.91;100.00
54417;BME280;40326;51.220;7.250;2022-08-19T06:39:23;98210.31;;;19.17;100.00
54417;BME280;40326;51.220;7.250;2022-08-19T06:41:51;98214.56;;;19.18;100.00
54417;BME280;40326;51.220;7.250;2022-08-19T06:44:21;98217.78;;;19.00;100.00
54417;BME280;40326;51.220;7.250;2022-08-19T06:46:47;98220.84;;;19.15;100.00
54417;BME280;40326;51.220;7.250;2022-08-19T06:49:14;98227.53;;;19.37;100.00
54417;BME280;40326;51.220;7.250;2022-08-19T06:51:41;98223.88;;;19.88;100.00
54417;BME280;40326;51.220;7.250;2022-08-19T06:54:07;98213.59;;;19.38;100.00
54417;BME280;40326;51.220;7.250;2022-08-19T06:56:33;98220.88;;;19.64;100.00
54417;BME280;40326;51.220;7.250;2022-08-19T06:59:05;98222.50;;;19.65;100.00
54417;BME280;40326;51.220;7.250;2022-08-19T07:01:38;98218.28;;;19.64;100.00
54417;BME280;40326;51.220;7.250;2022-08-19T07:04:05;98220.03;;;19.44;100.00
54417;BME280;40326;51.220;7.250;2022-08-19T07:06:31;98222.22;;;19.29;100.00
54417;BME280;40326;51.220;7.250;2022-08-19T07:08:57;98232.63;;;19.58;100.00
54417;BME280;40326;51.220;7.250;2022-08-19T07:11:23;98233.47;;;19.68;100.00
54417;BME280;40326;51.220;7.250;2022-08-19T07:13:49;98224.97;;;19.66;100.00
54417;BME280;40326;51.220;7.250;2022-08-19T07:16:16;98232.34;;;19.90;100.00
54417;BME280;40326;51.220;7.250;2022-08-19T07:18:44;98234.25;;;19.98;100.00
54417;BME280;40326;51.220;7.250;2022-08-19T07:21:12;98228.25;;;19.88;100.00
54417;BME280;40326;51.220;7.250;2022-08-19T07:23:38;98230.41;;;20.02;100.00
54417;BME280;40326;51.220;7.250;2022-08-19T07:26:09;98235.34;;;19.95;100.00
54417;BME280;40326;51.220;7.250;2022-08-19T07:28:34;98227.03;;;20.29;100.00
54417;BME280;40326;51.220;7.250;2022-08-19T07:31:01;98225.78;;;20.80;100.00
54417;BME280;40326;51.220;7.250;2022-08-19T07:33:28;98220.88;;;20.77;100.00
54417;BME280;40326;51.220;7.250;2022-08-19T07:35:55;98218.19;;;21.14;100.00
54417;BME280;40326;51.220;7.250;2022-08-19T07:38:20;98219.72;;;21.34;100.00
54417;BME280;40326;51.220;7.250;2022-08-19T07:40:45;98218.59;;;21.37;100.00
54417;BME280;40326;51.220;7.250;2022-08-19T07:43:11;98212.69;;;20.72;100.00
54417;BME280;40326;51.220;7.250;2022-08-19T07:45:36;98228.72;;;20.20;100.00
54417;BME280;40326;51.220;7.250;2022-08-19T07:48:02;98231.16;;;20.31;100.00
54417;BME280;40326;51.220;7.250;2022-08-19T07:50:29;98241.97;;;20.74;100.00
54417;BME280;40326;51.220;7.250;2022-08-19T07:52:54;98236.28;;;21.15;100.00
54417;BME280;40326;51.220;7.250;2022-08-19T07:55:22;98235.69;;;20.76;100.00
54417;BME280;40326;51.220;7.250;2022-08-19T07:57:48;98238.22;;;21.13;100.00
54417;BME280;40326;51.220;7.250;2022-08-19T08:00:14;98245.66;;;21.26;100.00
54417;BME280;40326;51.220;7.250;2022-08-19T08:02:40;98243.25;;;21.60;100.00
54417;BME280;40326;51.220;7.250;2022-08-19T08:05:08;98240.22;;;22.08;100.00
54417;BME280;40326;51.220;7.250;2022-08-19T08:07:52;98228.31;;;22.66;100.00
54417;BME280;40326;51.220;7.250;2022-08-19T08:10:36;98230.38;;;22.20;100.00
54417;BME280;40326;51.220;7.250;2022-08-19T08:13:02;98223.13;;;22.82;100.00
54417;BME280;40326;51.220;7.250;2022-08-19T08:15:30;98233.25;;;22.17;100.00
54417;BME280;40326;51.220;7.250;2022-08-19T08:17:55;98252.88;;;22.21;100.00
54417;BME280;40326;51.220;7.250;2022-08-19T08:20:23;98246.81;;;21.41;100.00
54417;BME280;40326;51.220;7.250;2022-08-19T08:22:49;98246.00;;;22.20;100.00
54417;BME280;40326;51.220;7.250;2022-08-19T08:25:34;98237.03;;;22.49;100.00
54417;BME280;40326;51.220;7.250;2022-08-19T08:28:01;98250.34;;;22.12;100.00
54417;BME280;40326;51.220;7.250;2022-08-19T08:30:28;98235.97;;;23.02;100.00
54417;BME280;40326;51.220;7.250;2022-08-19T08:32:54;98231.59;;;23.10;100.00
54417;BME280;40326;51.220;7.250;2022-08-19T08:35:23;98239.13;;;22.79;100.00
54417;BME280;40326;51.220;7.250;2022-08-19T08:37:51;98246.78;;;22.13;100.00
54417;BME280;40326;51.220;7.250;2022-08-19T08:43:06;98246.03;;;22.28;100.00
54417;BME280;40326;51.220;7.250;2022-08-19T08:45:41;98262.59;;;21.75;100.00
54417;BME280;40326;51.220;7.250;2022-08-19T08:48:18;98252.38;;;21.64;100.00
54417;BME280;40326;51.220;7.250;2022-08-19T08:50:46;98257.44;;;21.83;100.00
54417;BME280;40326;51.220;7.250;2022-08-19T08:53:15;98253.44;;;21.36;100.00
54417;BME280;40326;51.220;7.250;2022-08-19T08:55:41;98255.44;;;21.60;100.00
54417;BME280;40326;51.220;7.250;2022-08-19T08:58:14;98254.78;;;21.75;100.00
54417;BME280;40326;51.220;7.250;2022-08-19T09:00:46;98245.38;;;22.26;100.00
54417;BME280;40326;51.220;7.250;2022-08-19T09:03:19;98237.44;;;22.10;100.00
54417;BME280;40326;51.220;7.250;2022-08-19T09:08:51;98235.06;;;23.19;100.00
54417;BME280;40326;51.220;7.250;2022-08-19T09:11:54;98235.06;;;23.19;100.00
54417;BME280;40326;51.220;7.250;2022-08-19T09:14:38;98237.88;;;22.23;100.00
54417;BME280;40326;51.220;7.250;2022-08-19T09:17:08;98235.28;;;22.91;100.00
54417;BME280;40326;51.220;7.250;2022-08-19T09:22:35;98222.03;;;24.09;100.00
54417;BME280;40326;51.220;7.250;2022-08-19T09:25:01;98205.03;;;23.96;100.00
54417;BME280;40326;51.220;7.250;2022-08-19T09:27:28;98201.91;;;23.44;100.00
54417;BME280;40326;51.220;7.250;2022-08-19T09:29:54;98189.25;;;24.53;100.00
54417;BME280;40326;51.220;7.250;2022-08-19T09:32:21;98174.56;;;24.28;100.00
54417;BME280;40326;51.220;7.250;2022-08-19T09:34:47;98180.75;;;24.43;100.00
54417;BME280;40326;51.220;7.250;2022-08-19T09:37:13;98181.81;;;24.18;100.00
54417;BME280;40326;51.220;7.250;2022-08-19T09:39:39;98196.69;;;23.44;100.00
54417;BME280;40326;51.220;7.250;2022-08-19T09:42:06;98195.81;;;22.94;100.00
54417;BME280;40326;51.220;7.250;2022-08-19T09:44:38;98196.41;;;23.79;100.00
54417;BME280;40326;51.220;7.250;2022-08-19T09:47:03;98196.38;;;23.96;100.00
54417;BME280;40326;51.220;7.250;2022-08-19T09:49:29;98182.75;;;24.33;100.00
54417;BME280;40326;51.220;7.250;2022-08-19T09:51:56;98175.69;;;25.12;100.00
54417;BME280;40326;51.220;7.250;2022-08-19T09:54:22;98185.03;;;24.28;100.00
54417;BME280;40326;51.220;7.250;2022-08-19T09:56:48;98191.97;;;23.72;100.00
54417;BME280;40326;51.220;7.250;2022-08-19T09:59:14;98202.56;;;23.54;100.00
54417;BME280;40326;51.220;7.250;2022-08-19T10:01:39;98193.28;;;24.00;100.00
54417;BME280;40326;51.220;7.250;2022-08-19T10:04:05;98171.88;;;24.52;100.00
54417;BME280;40326;51.220;7.250;2022-08-19T10:06:34;98174.25;;;24.70;100.00
54417;BME280;40326;51.220;7.250;2022-08-19T10:09:02;98171.00;;;24.99;100.00
54417;BME280;40326;51.220;7.250;2022-08-19T10:11:32;98161.97;;;24.71;100.00
54417;BME280;40326;51.220;7.250;2022-08-19T10:13:58;98169.00;;;24.31;100.00
54417;BME280;40326;51.220;7.250;2022-08-19T10:16:24;98174.53;;;24.44;100.00
54417;BME280;40326;51.220;7.250;2022-08-19T10:18:51;98164.16;;;24.12;100.00
54417;BME280;40326;51.220;7.250;2022-08-19T10:21:23;98151.06;;;25.44;100.00
54417;BME280;40326;51.220;7.250;2022-08-19T10:23:51;98162.06;;;24.54;100.00
54417;BME280;40326;51.220;7.250;2022-08-19T10:26:21;98162.03;;;25.62;100.00
54417;BME280;40326;51.220;7.250;2022-08-19T10:28:47;98158.66;;;25.77;100.00
54417;BME280;40326;51.220;7.250;2022-08-19T10:31:17;98157.63;;;26.15;100.00
54417;BME280;40326;51.220;7.250;2022-08-19T10:33:45;98157.13;;;25.59;100.00
54417;BME280;40326;51.220;7.250;2022-08-19T10:36:13;98148.06;;;25.85;100.00
54417;BME280;40326;51.220;7.250;2022-08-19T10:38:40;98153.56;;;24.83;100.00
54417;BME280;40326;51.220;7.250;2022-08-19T10:41:11;98153.31;;;25.24;100.00
54417;BME280;40326;51.220;7.250;2022-08-19T10:43:38;98154.06;;;24.00;100.00
54417;BME280;40326;51.220;7.250;2022-08-19T10:46:09;98158.22;;;24.73;100.00
54417;BME280;40326;51.220;7.250;2022-08-19T10:48:35;98145.59;;;25.08;100.00
54417;BME280;40326;51.220;7.250;2022-08-19T10:51:02;98143.28;;;24.43;100.00
54417;BME280;40326;51.220;7.250;2022-08-19T10:53:46;98145.16;;;24.65;100.00
54417;BME280;40326;51.220;7.250;2022-08-19T10:56:12;98146.19;;;24.56;100.00
54417;BME280;40326;51.220;7.250;2022-08-19T10:58:56;98146.88;;;25.12;100.00
54417;BME280;40326;51.220;7.250;2022-08-19T11:01:23;98144.53;;;25.40;100.00
54417;BME280;40326;51.220;7.250;2022-08-19T11:03:48;98137.03;;;25.52;100.00
54417;BME280;40326;51.220;7.250;2022-08-19T11:06:15;98150.69;;;25.01;100.00
54417;BME280;40326;51.220;7.250;2022-08-19T11:08:41;98145.03;;;24.58;100.00
54417;BME280;40326;51.220;7.250;2022-08-19T11:11:09;98141.88;;;25.02;100.00
54417;BME280;40326;51.220;7.250;2022-08-19T11:13:37;98138.56;;;25.08;100.00
54417;BME280;40326;51.220;7.250;2022-08-19T11:16:09;98143.81;;;25.00;100.00
54417;BME280;40326;51.220;7.250;2022-08-19T11:18:37;98127.84;;;25.18;100.00
54417;BME280;40326;51.220;7.250;2022-08-19T11:21:12;98131.16;;;25.35;100.00
54417;BME280;40326;51.220;7.250;2022-08-19T11:23:38;98137.63;;;25.62;100.00
54417;BME280;40326;51.220;7.250;2022-08-19T11:26:03;98131.81;;;26.34;100.00
54417;BME280;40326;51.220;7.250;2022-08-19T11:28:29;98126.72;;;25.73;100.00
54417;BME280;40326;51.220;7.250;2022-08-19T11:30:54;98126.78;;;24.42;100.00
54417;BME280;40326;51.220;7.250;2022-08-19T11:33:20;98131.56;;;23.75;100.00
54417;BME280;40326;51.220;7.250;2022-08-19T11:35:45;98136.06;;;24.84;100.00
54417;BME280;40326;51.220;7.250;2022-08-19T11:38:10;98116.63;;;25.47;100.00
54417;BME280;40326;51.220;7.250;2022-08-19T11:40:36;98117.63;;;25.00;100.00
54417;BME280;40326;51.220;7.250;2022-08-19T11:43:02;98121.88;;;24.47;100.00
54417;BME280;40326;51.220;7.250;2022-08-19T11:45:28;98121.09;;;23.75;100.00
54417;BME280;40326;51.220;7.250;2022-08-19T11:47:54;98123.69;;;23.83;100.00
54417;BME280;40326;51.220;7.250;2022-08-19T11:50:20;98121.28;;;24.21;100.00
54417;BME280;40326;51.220;7.250;2022-08-19T11:52:46;98122.69;;;24.48;100.00
54417;BME280;40326;51.220;7.250;2022-08-19T11:55:13;98116.91;;;24.13;100.00
54417;BME280;40326;51.220;7.250;2022-08-19T11:57:39;98107.38;;;24.90;100.00
54417;BME280;40326;51.220;7.250;2022-08-19T12:00:07;98123.97;;;25.66;100.00
54417;BME280;40326;51.220;7.250;2022-08-19T12:02:33;98109.31;;;25.57;100.00
54417;BME280;40326;51.220;7.250;2022-08-19T12:04:59;98107.53;;;26.31;100.00
54417;BME280;40326;51.220;7.250;2022-08-19T12:07:27;98115.44;;;25.12;100.00
54417;BME280;40326;51.220;7.250;2022-08-19T12:09:52;98111.38;;;24.47;100.00
54417;BME280;40326;51.220;7.250;2022-08-19T12:12:18;98116.88;;;25.52;100.00
54417;BME280;40326;51.220;7.250;2022-08-19T12:14:43;98110.06;;;25.28;100.00
54417;BME280;40326;51.220;7.250;2022-08-19T12:17:09;98112.66;;;24.12;100.00
54417;BME280;40326;51.220;7.250;2022-08-19T12:19:36;98121.56;;;23.70;100.00
54417;BME280;40326;51.220;7.250;2022-08-19T12:22:02;98123.69;;;25.24;100.00
54417;BME280;40326;51.220;7.250;2022-08-19T12:24:30;98112.34;;;25.84;100.00
54417;BME280;40326;51.220;7.250;2022-08-19T12:26:56;98107.03;;;26.94;100.00
54417;BME280;40326;51.220;7.250;2022-08-19T12:29:23;98108.19;;;25.74;100.00
54417;BME280;40326;51.220;7.250;2022-08-19T12:31:54;98109.56;;;25.47;100.00
54417;BME280;40326;51.220;7.250;2022-08-19T12:34:19;98106.75;;;24.57;100.00
54417;BME280;40326;51.220;7.250;2022-08-19T12:36:45;98105.19;;;25.02;100.00
54417;BME280;40326;51.220;7.250;2022-08-19T12:39:10;98103.78;;;24.60;100.00
54417;BME280;40326;51.220;7.250;2022-08-19T12:41:36;98106.63;;;24.82;100.00
54417;BME280;40326;51.220;7.250;2022-08-19T12:44:02;98104.13;;;25.11;100.00
54417;BME280;40326;51.220;7.250;2022-08-19T12:46:28;98104.25;;;26.59;100.00
54417;BME280;40326;51.220;7.250;2022-08-19T12:48:53;98100.66;;;26.81;100.00
54417;BME280;40326;51.220;7.250;2022-08-19T12:51:19;98095.22;;;26.47;100.00
54417;BME280;40326;51.220;7.250;2022-08-19T12:53:46;98094.25;;;26.33;100.00
54417;BME280;40326;51.220;7.250;2022-08-19T12:56:12;98087.88;;;26.57;100.00
54417;BME280;40326;51.220;7.250;2022-08-19T12:58:40;98084.00;;;26.23;100.00
54417;BME280;40326;51.220;7.250;2022-08-19T13:01:11;98094.63;;;26.66;100.00
54417;BME280;40326;51.220;7.250;2022-08-19T13:03:37;98085.84;;;25.93;100.00
54417;BME280;40326;51.220;7.250;2022-08-19T13:06:03;98082.22;;;26.09;100.00